Etusivu
METAR-TAF:

METAR-TAF

Lentoasemat :

Defiance Memorial Airport

Defiance, Ohio, Yhdysvallat

Leveyspiiri: 41-20-11N, Pituuspiiri: 084-25-46W, korkeus merenpinnasta: 215 m

Tämänhetkinen sää

Tämä raportti tehtiin 1 tunti ja 10 minuuttia sitten, kello 05.53 UTC
tyyntä
Lämpötila -12°C
Kosteus 78%
Ilmanpaine 1029 hPa
Näkyvyys: 16.1 km
selkeää

METAR: KDFI 130553Z AUTO 00000KT 10SM CLR M12/M15 A3040 RMK AO2 SLP309 I6001 T11221150 11072 21122 58001

Aika: 02:03 (07:03 UTC)


TAF: puuttuu

Säähavainnot ja -ennusteet yli 4000 lentoasemalta (METAR- ja TAF-raportit).

Käytössä olevat sääasemat on merkitty karttaan keltaisilla ja punaisilla pisteillä.

Aseta hiiri pisteen päälle nähdäksesi sääaseman nimen.

Klikkaa sitten nähdäksesi säähavainnot ja -ennusteet.

Kartan vaihtaminen: klikkaa mustalla rastilla varustettuja vihreitä pisteitä, niin voit zoomata sisään; viivalla varustettua vihreää pistettä, niin voit zoomata ulos tai vihreitä nuolia, niin pääset viereisille kartoille.


METAR-TAF: